sensor_id;sensor_type;location;lat;lon;timestamp;P1;durP1;ratioP1;P2;durP2;ratioP2
6280;SDS011;3173;48.204;11.612;2022-12-07T00:01:06;11.23;;;6.83;;
6280;SDS011;3173;48.204;11.612;2022-12-07T00:03:37;11.03;;;6.60;;
6280;SDS011;3173;48.204;11.612;2022-12-07T00:06:04;9.37;;;7.00;;
6280;SDS011;3173;48.204;11.612;2022-12-07T00:08:33;10.30;;;7.33;;
6280;SDS011;3173;48.204;11.612;2022-12-07T00:11:01;13.37;;;7.47;;
6280;SDS011;3173;48.204;11.612;2022-12-07T00:13:28;13.00;;;8.63;;
6280;SDS011;3173;48.204;11.612;2022-12-07T00:15:54;10.40;;;7.33;;
6280;SDS011;3173;48.204;11.612;2022-12-07T00:18:20;11.20;;;7.10;;
6280;SDS011;3173;48.204;11.612;2022-12-07T00:20:46;11.07;;;7.73;;
6280;SDS011;3173;48.204;11.612;2022-12-07T00:23:12;10.67;;;7.30;;
6280;SDS011;3173;48.204;11.612;2022-12-07T00:25:38;11.57;;;7.70;;
6280;SDS011;3173;48.204;11.612;2022-12-07T00:28:04;11.80;;;7.67;;
6280;SDS011;3173;48.204;11.612;2022-12-07T00:30:31;10.77;;;7.60;;
6280;SDS011;3173;48.204;11.612;2022-12-07T00:32:57;10.37;;;7.20;;
6280;SDS011;3173;48.204;11.612;2022-12-07T00:35:24;14.30;;;7.57;;
6280;SDS011;3173;48.204;11.612;2022-12-07T00:37:50;9.40;;;6.93;;
6280;SDS011;3173;48.204;11.612;2022-12-07T00:40:16;11.00;;;7.17;;
6280;SDS011;3173;48.204;11.612;2022-12-07T00:42:42;10.77;;;7.87;;
6280;SDS011;3173;48.204;11.612;2022-12-07T00:45:08;10.20;;;7.37;;
6280;SDS011;3173;48.204;11.612;2022-12-07T00:47:34;10.57;;;7.17;;
6280;SDS011;3173;48.204;11.612;2022-12-07T00:50:01;10.70;;;7.43;;
6280;SDS011;3173;48.204;11.612;2022-12-07T00:52:27;12.13;;;7.40;;
6280;SDS011;3173;48.204;11.612;2022-12-07T00:54:53;9.60;;;7.00;;
6280;SDS011;3173;48.204;11.612;2022-12-07T00:57:19;11.10;;;7.17;;
6280;SDS011;3173;48.204;11.612;2022-12-07T00:59:45;10.90;;;7.13;;
6280;SDS011;3173;48.204;11.612;2022-12-07T01:02:11;10.37;;;7.20;;
6280;SDS011;3173;48.204;11.612;2022-12-07T01:04:37;11.50;;;7.30;;
6280;SDS011;3173;48.204;11.612;2022-12-07T01:07:03;10.27;;;6.73;;
6280;SDS011;3173;48.204;11.612;2022-12-07T01:09:29;10.90;;;7.30;;
6280;SDS011;3173;48.204;11.612;2022-12-07T01:11:55;10.60;;;6.97;;
6280;SDS011;3173;48.204;11.612;2022-12-07T01:14:22;17.80;;;8.20;;
6280;SDS011;3173;48.204;11.612;2022-12-07T01:16:48;9.97;;;7.13;;
6280;SDS011;3173;48.204;11.612;2022-12-07T01:19:14;10.90;;;7.40;;
6280;SDS011;3173;48.204;11.612;2022-12-07T01:21:40;10.03;;;6.80;;
6280;SDS011;3173;48.204;11.612;2022-12-07T01:24:07;12.17;;;7.83;;
6280;SDS011;3173;48.204;11.612;2022-12-07T01:26:34;13.57;;;8.60;;
6280;SDS011;3173;48.204;11.612;2022-12-07T01:29:00;11.17;;;7.10;;
6280;SDS011;3173;48.204;11.612;2022-12-07T01:31:27;12.10;;;8.00;;
6280;SDS011;3173;48.204;11.612;2022-12-07T01:33:54;11.70;;;8.13;;
6280;SDS011;3173;48.204;11.612;2022-12-07T01:36:22;10.87;;;7.00;;
6280;SDS011;3173;48.204;11.612;2022-12-07T01:38:49;14.83;;;8.77;;
6280;SDS011;3173;48.204;11.612;2022-12-07T01:41:19;11.47;;;7.37;;
6280;SDS011;3173;48.204;11.612;2022-12-07T01:46:30;11.23;;;7.20;;
6280;SDS011;3173;48.204;11.612;2022-12-07T01:48:56;12.33;;;7.70;;
6280;SDS011;3173;48.204;11.612;2022-12-07T01:51:23;10.70;;;7.43;;
6280;SDS011;3173;48.204;11.612;2022-12-07T01:53:49;11.60;;;7.97;;
6280;SDS011;3173;48.204;11.612;2022-12-07T01:56:17;15.30;;;8.30;;
6280;SDS011;3173;48.204;11.612;2022-12-07T01:58:44;11.40;;;6.97;;
6280;SDS011;3173;48.204;11.612;2022-12-07T02:01:11;11.90;;;8.00;;
6280;SDS011;3173;48.204;11.612;2022-12-07T02:03:41;12.27;;;8.10;;
6280;SDS011;3173;48.204;11.612;2022-12-07T02:06:07;11.23;;;7.53;;
6280;SDS011;3173;48.204;11.612;2022-12-07T02:08:34;12.87;;;7.80;;
6280;SDS011;3173;48.204;11.612;2022-12-07T02:11:02;14.03;;;7.90;;
6280;SDS011;3173;48.204;11.612;2022-12-07T02:13:30;12.67;;;7.57;;
6280;SDS011;3173;48.204;11.612;2022-12-07T02:16:03;13.77;;;8.43;;
6280;SDS011;3173;48.204;11.612;2022-12-07T02:18:45;12.70;;;8.17;;
6280;SDS011;3173;48.204;11.612;2022-12-07T02:28:50;12.60;;;7.20;;
6280;SDS011;3173;48.204;11.612;2022-12-07T02:31:19;11.40;;;7.90;;
6280;SDS011;3173;48.204;11.612;2022-12-07T02:33:49;11.47;;;7.77;;
6280;SDS011;3173;48.204;11.612;2022-12-07T02:36:26;13.10;;;8.00;;
6280;SDS011;3173;48.204;11.612;2022-12-07T02:38:58;12.23;;;8.00;;
6280;SDS011;3173;48.204;11.612;2022-12-07T02:41:27;14.30;;;8.33;;
6280;SDS011;3173;48.204;11.612;2022-12-07T02:44:04;11.97;;;8.37;;
6280;SDS011;3173;48.204;11.612;2022-12-07T02:46:33;12.57;;;8.43;;
6280;SDS011;3173;48.204;11.612;2022-12-07T02:49:02;15.47;;;8.17;;
6280;SDS011;3173;48.204;11.612;2022-12-07T02:51:32;12.60;;;7.83;;
6280;SDS011;3173;48.204;11.612;2022-12-07T02:53:59;12.70;;;8.10;;
6280;SDS011;3173;48.204;11.612;2022-12-07T02:58:56;15.20;;;8.90;;
6280;SDS011;3173;48.204;11.612;2022-12-07T03:06:42;12.13;;;8.20;;
6280;SDS011;3173;48.204;11.612;2022-12-07T03:09:20;12.67;;;8.50;;
6280;SDS011;3173;48.204;11.612;2022-12-07T03:11:49;13.87;;;9.43;;
6280;SDS011;3173;48.204;11.612;2022-12-07T03:14:24;11.23;;;7.97;;
6280;SDS011;3173;48.204;11.612;2022-12-07T03:17:08;14.13;;;9.00;;
6280;SDS011;3173;48.204;11.612;2022-12-07T03:19:36;11.60;;;7.60;;
6280;SDS011;3173;48.204;11.612;2022-12-07T03:22:04;11.97;;;8.67;;
6280;SDS011;3173;48.204;11.612;2022-12-07T03:24:33;10.73;;;7.10;;
6280;SDS011;3173;48.204;11.612;2022-12-07T03:27:05;12.77;;;8.10;;
6280;SDS011;3173;48.204;11.612;2022-12-07T03:29:36;12.70;;;7.83;;
6280;SDS011;3173;48.204;11.612;2022-12-07T03:32:12;10.87;;;7.40;;
6280;SDS011;3173;48.204;11.612;2022-12-07T03:34:47;15.20;;;8.50;;
6280;SDS011;3173;48.204;11.612;2022-12-07T03:42:44;15.40;;;8.97;;
6280;SDS011;3173;48.204;11.612;2022-12-07T03:45:11;13.93;;;8.47;;
6280;SDS011;3173;48.204;11.612;2022-12-07T03:48:21;10.87;;;7.63;;
6280;SDS011;3173;48.204;11.612;2022-12-07T03:52:55;11.57;;;7.83;;
6280;SDS011;3173;48.204;11.612;2022-12-07T03:57:49;11.23;;;7.70;;
6280;SDS011;3173;48.204;11.612;2022-12-07T04:00:16;11.97;;;8.30;;
6280;SDS011;3173;48.204;11.612;2022-12-07T04:02:43;12.60;;;8.20;;
6280;SDS011;3173;48.204;11.612;2022-12-07T04:05:10;11.37;;;8.40;;
6280;SDS011;3173;48.204;11.612;2022-12-07T04:07:36;13.33;;;9.27;;
6280;SDS011;3173;48.204;11.612;2022-12-07T04:10:02;16.20;;;9.50;;
6280;SDS011;3173;48.204;11.612;2022-12-07T04:12:29;11.43;;;7.80;;
6280;SDS011;3173;48.204;11.612;2022-12-07T04:14:55;12.47;;;8.20;;
6280;SDS011;3173;48.204;11.612;2022-12-07T04:17:21;14.40;;;8.87;;
6280;SDS011;3173;48.204;11.612;2022-12-07T04:19:47;13.50;;;8.90;;
6280;SDS011;3173;48.204;11.612;2022-12-07T04:22:13;14.57;;;8.83;;
6280;SDS011;3173;48.204;11.612;2022-12-07T04:24:39;12.80;;;8.50;;
6280;SDS011;3173;48.204;11.612;2022-12-07T04:27:05;14.87;;;8.90;;
6280;SDS011;3173;48.204;11.612;2022-12-07T04:29:32;13.70;;;8.80;;
6280;SDS011;3173;48.204;11.612;2022-12-07T04:31:58;12.67;;;8.27;;
6280;SDS011;3173;48.204;11.612;2022-12-07T04:34:24;14.10;;;9.27;;
6280;SDS011;3173;48.204;11.612;2022-12-07T04:36:50;14.37;;;9.57;;
6280;SDS011;3173;48.204;11.612;2022-12-07T04:39:21;14.30;;;8.77;;
6280;SDS011;3173;48.204;11.612;2022-12-07T04:41:47;16.37;;;9.00;;
6280;SDS011;3173;48.204;11.612;2022-12-07T04:44:14;18.30;;;9.90;;
6280;SDS011;3173;48.204;11.612;2022-12-07T04:46:41;14.53;;;9.57;;
6280;SDS011;3173;48.204;11.612;2022-12-07T04:49:07;13.90;;;9.07;;
6280;SDS011;3173;48.204;11.612;2022-12-07T04:51:33;15.67;;;9.50;;
6280;SDS011;3173;48.204;11.612;2022-12-07T04:54:00;14.37;;;9.50;;
6280;SDS011;3173;48.204;11.612;2022-12-07T04:56:26;15.57;;;9.70;;
6280;SDS011;3173;48.204;11.612;2022-12-07T04:58:53;15.63;;;8.83;;
6280;SDS011;3173;48.204;11.612;2022-12-07T05:01:20;15.50;;;9.63;;
6280;SDS011;3173;48.204;11.612;2022-12-07T05:03:46;13.10;;;8.77;;
6280;SDS011;3173;48.204;11.612;2022-12-07T05:06:12;15.10;;;8.83;;
6280;SDS011;3173;48.204;11.612;2022-12-07T05:08:39;13.97;;;9.57;;
6280;SDS011;3173;48.204;11.612;2022-12-07T05:11:05;12.37;;;8.47;;
6280;SDS011;3173;48.204;11.612;2022-12-07T05:13:32;17.10;;;9.70;;
6280;SDS011;3173;48.204;11.612;2022-12-07T05:15:58;14.50;;;9.30;;
6280;SDS011;3173;48.204;11.612;2022-12-07T05:18:24;14.03;;;9.40;;
6280;SDS011;3173;48.204;11.612;2022-12-07T05:20:50;15.40;;;9.20;;
6280;SDS011;3173;48.204;11.612;2022-12-07T05:23:17;13.20;;;8.80;;
6280;SDS011;3173;48.204;11.612;2022-12-07T05:25:43;14.70;;;9.10;;
6280;SDS011;3173;48.204;11.612;2022-12-07T05:28:10;16.40;;;9.53;;
6280;SDS011;3173;48.204;11.612;2022-12-07T05:30:36;14.10;;;9.40;;
6280;SDS011;3173;48.204;11.612;2022-12-07T05:33:02;13.53;;;8.37;;
6280;SDS011;3173;48.204;11.612;2022-12-07T05:35:30;14.70;;;10.50;;
6280;SDS011;3173;48.204;11.612;2022-12-07T05:37:56;17.50;;;9.33;;
6280;SDS011;3173;48.204;11.612;2022-12-07T05:40:23;15.87;;;8.93;;
6280;SDS011;3173;48.204;11.612;2022-12-07T05:42:49;15.32;;;10.65;;
6280;SDS011;3173;48.204;11.612;2022-12-07T05:45:15;18.70;;;11.33;;
6280;SDS011;3173;48.204;11.612;2022-12-07T05:47:42;16.00;;;10.57;;
6280;SDS011;3173;48.204;11.612;2022-12-07T05:50:08;14.70;;;8.77;;
6280;SDS011;3173;48.204;11.612;2022-12-07T05:52:34;15.67;;;10.03;;
6280;SDS011;3173;48.204;11.612;2022-12-07T05:55:00;14.53;;;8.93;;
6280;SDS011;3173;48.204;11.612;2022-12-07T05:57:27;13.90;;;9.03;;
6280;SDS011;3173;48.204;11.612;2022-12-07T05:59:53;17.40;;;9.60;;
6280;SDS011;3173;48.204;11.612;2022-12-07T06:02:19;15.50;;;9.83;;
6280;SDS011;3173;48.204;11.612;2022-12-07T06:04:45;17.03;;;10.50;;
6280;SDS011;3173;48.204;11.612;2022-12-07T06:07:13;16.63;;;9.97;;
6280;SDS011;3173;48.204;11.612;2022-12-07T06:09:40;16.03;;;9.20;;
6280;SDS011;3173;48.204;11.612;2022-12-07T06:12:08;17.10;;;9.90;;
6280;SDS011;3173;48.204;11.612;2022-12-07T06:14:53;13.37;;;9.37;;
6280;SDS011;3173;48.204;11.612;2022-12-07T06:17:19;14.30;;;9.70;;
6280;SDS011;3173;48.204;11.612;2022-12-07T06:19:45;15.87;;;10.23;;
6280;SDS011;3173;48.204;11.612;2022-12-07T06:22:11;15.80;;;11.00;;
6280;SDS011;3173;48.204;11.612;2022-12-07T06:24:38;17.93;;;9.60;;
6280;SDS011;3173;48.204;11.612;2022-12-07T06:27:05;17.03;;;9.43;;
6280;SDS011;3173;48.204;11.612;2022-12-07T06:29:31;13.63;;;8.93;;
6280;SDS011;3173;48.204;11.612;2022-12-07T06:31:57;14.40;;;9.70;;
6280;SDS011;3173;48.204;11.612;2022-12-07T06:34:24;20.90;;;9.90;;
6280;SDS011;3173;48.204;11.612;2022-12-07T06:36:50;15.63;;;9.30;;
6280;SDS011;3173;48.204;11.612;2022-12-07T06:39:20;13.27;;;8.83;;
6280;SDS011;3173;48.204;11.612;2022-12-07T06:41:46;15.50;;;10.77;;
6280;SDS011;3173;48.204;11.612;2022-12-07T06:44:12;15.57;;;10.80;;
6280;SDS011;3173;48.204;11.612;2022-12-07T06:46:38;15.93;;;10.40;;
6280;SDS011;3173;48.204;11.612;2022-12-07T06:49:05;14.80;;;10.27;;
6280;SDS011;3173;48.204;11.612;2022-12-07T06:51:32;15.10;;;9.50;;
6280;SDS011;3173;48.204;11.612;2022-12-07T06:53:58;16.87;;;11.20;;
6280;SDS011;3173;48.204;11.612;2022-12-07T06:56:24;18.90;;;10.53;;
6280;SDS011;3173;48.204;11.612;2022-12-07T06:58:50;17.13;;;10.97;;
6280;SDS011;3173;48.204;11.612;2022-12-07T07:01:17;17.43;;;11.13;;
6280;SDS011;3173;48.204;11.612;2022-12-07T07:03:44;16.23;;;10.40;;
6280;SDS011;3173;48.204;11.612;2022-12-07T07:06:11;14.50;;;9.57;;
6280;SDS011;3173;48.204;11.612;2022-12-07T07:08:38;16.60;;;9.80;;
6280;SDS011;3173;48.204;11.612;2022-12-07T07:11:05;16.83;;;9.70;;
6280;SDS011;3173;48.204;11.612;2022-12-07T07:13:31;19.17;;;10.60;;
6280;SDS011;3173;48.204;11.612;2022-12-07T07:15:57;16.20;;;10.47;;
6280;SDS011;3173;48.204;11.612;2022-12-07T07:18:23;16.60;;;10.53;;
6280;SDS011;3173;48.204;11.612;2022-12-07T07:20:50;16.97;;;10.93;;
6280;SDS011;3173;48.204;11.612;2022-12-07T07:23:16;15.30;;;9.80;;
6280;SDS011;3173;48.204;11.612;2022-12-07T07:25:42;14.83;;;10.07;;
6280;SDS011;3173;48.204;11.612;2022-12-07T07:28:09;16.37;;;10.97;;
6280;SDS011;3173;48.204;11.612;2022-12-07T07:30:36;15.00;;;10.47;;
6280;SDS011;3173;48.204;11.612;2022-12-07T07:33:02;17.27;;;12.27;;
6280;SDS011;3173;48.204;11.612;2022-12-07T07:35:29;18.30;;;10.97;;
6280;SDS011;3173;48.204;11.612;2022-12-07T07:37:56;16.00;;;10.00;;
6280;SDS011;3173;48.204;11.612;2022-12-07T07:40:22;18.27;;;10.67;;
6280;SDS011;3173;48.204;11.612;2022-12-07T07:42:48;16.50;;;10.40;;
6280;SDS011;3173;48.204;11.612;2022-12-07T07:45:15;17.00;;;11.30;;
6280;SDS011;3173;48.204;11.612;2022-12-07T07:47:41;18.23;;;10.80;;
6280;SDS011;3173;48.204;11.612;2022-12-07T07:50:07;15.77;;;10.80;;
6280;SDS011;3173;48.204;11.612;2022-12-07T07:52:33;16.60;;;10.27;;
6280;SDS011;3173;48.204;11.612;2022-12-07T07:55:00;15.30;;;9.73;;
6280;SDS011;3173;48.204;11.612;2022-12-07T07:57:26;18.03;;;10.40;;
6280;SDS011;3173;48.204;11.612;2022-12-07T07:59:52;14.67;;;10.10;;
6280;SDS011;3173;48.204;11.612;2022-12-07T08:02:18;13.50;;;9.70;;
6280;SDS011;3173;48.204;11.612;2022-12-07T08:04:44;18.17;;;10.40;;
6280;SDS011;3173;48.204;11.612;2022-12-07T08:07:11;14.30;;;8.83;;
6280;SDS011;3173;48.204;11.612;2022-12-07T08:09:37;14.43;;;10.07;;
6280;SDS011;3173;48.204;11.612;2022-12-07T08:12:04;13.17;;;8.83;;
6280;SDS011;3173;48.204;11.612;2022-12-07T08:14:30;13.27;;;9.00;;
6280;SDS011;3173;48.204;11.612;2022-12-07T08:16:56;13.07;;;8.93;;
6280;SDS011;3173;48.204;11.612;2022-12-07T08:19:22;12.27;;;8.57;;
6280;SDS011;3173;48.204;11.612;2022-12-07T08:21:49;14.47;;;8.53;;
6280;SDS011;3173;48.204;11.612;2022-12-07T08:24:15;13.77;;;8.13;;
6280;SDS011;3173;48.204;11.612;2022-12-07T08:26:41;14.27;;;8.90;;
6280;SDS011;3173;48.204;11.612;2022-12-07T08:29:08;17.30;;;9.77;;
6280;SDS011;3173;48.204;11.612;2022-12-07T08:31:34;13.53;;;9.13;;
6280;SDS011;3173;48.204;11.612;2022-12-07T08:34:00;16.47;;;9.83;;
6280;SDS011;3173;48.204;11.612;2022-12-07T08:36:26;15.83;;;10.30;;
6280;SDS011;3173;48.204;11.612;2022-12-07T08:38:52;24.13;;;10.47;;
6280;SDS011;3173;48.204;11.612;2022-12-07T08:41:18;17.00;;;8.60;;
6280;SDS011;3173;48.204;11.612;2022-12-07T08:43:44;17.83;;;10.20;;
6280;SDS011;3173;48.204;11.612;2022-12-07T08:51:15;15.07;;;9.03;;
6280;SDS011;3173;48.204;11.612;2022-12-07T08:53:41;12.07;;;7.90;;
6280;SDS011;3173;48.204;11.612;2022-12-07T08:56:08;14.10;;;9.00;;
6280;SDS011;3173;48.204;11.612;2022-12-07T08:58:35;13.60;;;9.37;;
6280;SDS011;3173;48.204;11.612;2022-12-07T09:01:01;12.23;;;9.27;;
6280;SDS011;3173;48.204;11.612;2022-12-07T09:03:28;13.30;;;8.83;;
6280;SDS011;3173;48.204;11.612;2022-12-07T09:05:54;16.90;;;9.73;;
6280;SDS011;3173;48.204;11.612;2022-12-07T09:08:21;16.23;;;9.70;;
6280;SDS011;3173;48.204;11.612;2022-12-07T09:10:48;16.27;;;9.97;;
6280;SDS011;3173;48.204;11.612;2022-12-07T09:13:14;17.33;;;9.77;;
6280;SDS011;3173;48.204;11.612;2022-12-07T09:15:40;15.57;;;9.17;;
6280;SDS011;3173;48.204;11.612;2022-12-07T09:18:06;13.40;;;10.00;;
6280;SDS011;3173;48.204;11.612;2022-12-07T09:20:32;16.60;;;9.87;;
6280;SDS011;3173;48.204;11.612;2022-12-07T09:22:59;16.07;;;9.73;;
6280;SDS011;3173;48.204;11.612;2022-12-07T09:25:25;14.50;;;9.17;;
6280;SDS011;3173;48.204;11.612;2022-12-07T09:27:55;14.63;;;8.90;;
6280;SDS011;3173;48.204;11.612;2022-12-07T09:30:21;15.43;;;8.93;;
6280;SDS011;3173;48.204;11.612;2022-12-07T09:32:47;12.97;;;8.80;;
6280;SDS011;3173;48.204;11.612;2022-12-07T09:35:14;16.90;;;9.20;;
6280;SDS011;3173;48.204;11.612;2022-12-07T09:37:40;18.10;;;8.20;;
6280;SDS011;3173;48.204;11.612;2022-12-07T09:40:06;13.77;;;8.37;;
6280;SDS011;3173;48.204;11.612;2022-12-07T09:42:34;12.97;;;8.67;;
6280;SDS011;3173;48.204;11.612;2022-12-07T09:45:02;15.60;;;11.47;;
6280;SDS011;3173;48.204;11.612;2022-12-07T09:47:30;13.57;;;8.50;;
6280;SDS011;3173;48.204;11.612;2022-12-07T09:50:05;14.47;;;9.20;;
6280;SDS011;3173;48.204;11.612;2022-12-07T09:52:43;15.07;;;9.37;;
6280;SDS011;3173;48.204;11.612;2022-12-07T09:55:19;13.33;;;9.10;;
6280;SDS011;3173;48.204;11.612;2022-12-07T09:57:51;14.60;;;9.13;;
6280;SDS011;3173;48.204;11.612;2022-12-07T10:00:19;14.17;;;9.90;;
6280;SDS011;3173;48.204;11.612;2022-12-07T10:02:55;15.23;;;9.77;;
6280;SDS011;3173;48.204;11.612;2022-12-07T10:05:46;15.10;;;9.40;;
6280;SDS011;3173;48.204;11.612;2022-12-07T10:08:13;12.20;;;8.07;;
6280;SDS011;3173;48.204;11.612;2022-12-07T10:10:42;11.90;;;7.10;;
6280;SDS011;3173;48.204;11.612;2022-12-07T10:13:13;12.47;;;8.37;;
6280;SDS011;3173;48.204;11.612;2022-12-07T10:15:51;11.17;;;7.40;;
6280;SDS011;3173;48.204;11.612;2022-12-07T10:31:40;13.53;;;7.13;;
6280;SDS011;3173;48.204;11.612;2022-12-07T10:34:14;12.73;;;8.17;;
6280;SDS011;3173;48.204;11.612;2022-12-07T10:36:49;13.00;;;8.27;;
6280;SDS011;3173;48.204;11.612;2022-12-07T10:39:20;16.07;;;8.40;;
6280;SDS011;3173;48.204;11.612;2022-12-07T10:41:57;12.60;;;8.00;;
6280;SDS011;3173;48.204;11.612;2022-12-07T10:44:29;11.70;;;7.60;;
6280;SDS011;3173;48.204;11.612;2022-12-07T10:47:12;12.03;;;7.23;;
6280;SDS011;3173;48.204;11.612;2022-12-07T11:04:15;13.30;;;7.57;;
6280;SDS011;3173;48.204;11.612;2022-12-07T11:07:47;11.40;;;6.90;;
6280;SDS011;3173;48.204;11.612;2022-12-07T11:15:13;9.20;;;6.13;;
6280;SDS011;3173;48.204;11.612;2022-12-07T11:20:51;9.30;;;6.20;;
6280;SDS011;3173;48.204;11.612;2022-12-07T11:34:39;9.07;;;6.40;;
6280;SDS011;3173;48.204;11.612;2022-12-07T11:37:31;6.83;;;5.87;;
6280;SDS011;3173;48.204;11.612;2022-12-07T11:40:01;9.07;;;6.33;;
6280;SDS011;3173;48.204;11.612;2022-12-07T11:42:41;8.07;;;5.57;;
6280;SDS011;3173;48.204;11.612;2022-12-07T11:45:14;6.70;;;5.60;;
6280;SDS011;3173;48.204;11.612;2022-12-07T11:47:48;10.23;;;6.60;;
6280;SDS011;3173;48.204;11.612;2022-12-07T11:52:53;6.93;;;4.70;;
6280;SDS011;3173;48.204;11.612;2022-12-07T12:01:22;7.50;;;5.40;;
6280;SDS011;3173;48.204;11.612;2022-12-07T12:04:06;8.00;;;5.13;;
6280;SDS011;3173;48.204;11.612;2022-12-07T12:06:37;9.40;;;4.90;;
6280;SDS011;3173;48.204;11.612;2022-12-07T12:14:41;8.30;;;5.63;;
6280;SDS011;3173;48.204;11.612;2022-12-07T12:20:41;8.10;;;5.73;;
6280;SDS011;3173;48.204;11.612;2022-12-07T12:25:47;13.20;;;6.47;;
6280;SDS011;3173;48.204;11.612;2022-12-07T12:28:22;11.33;;;6.33;;
6280;SDS011;3173;48.204;11.612;2022-12-07T12:33:50;7.27;;;5.47;;
6280;SDS011;3173;48.204;11.612;2022-12-07T12:36:46;8.37;;;6.40;;
6280;SDS011;3173;48.204;11.612;2022-12-07T12:39:16;8.53;;;5.87;;
6280;SDS011;3173;48.204;11.612;2022-12-07T12:47:03;13.23;;;6.30;;
6280;SDS011;3173;48.204;11.612;2022-12-07T12:57:36;9.87;;;6.73;;
6280;SDS011;3173;48.204;11.612;2022-12-07T13:02:54;6.00;;;4.17;;
6280;SDS011;3173;48.204;11.612;2022-12-07T13:05:21;8.30;;;6.20;;
6280;SDS011;3173;48.204;11.612;2022-12-07T13:10:38;46.77;;;6.50;;
6280;SDS011;3173;48.204;11.612;2022-12-07T13:20:59;14.33;;;10.70;;
6280;SDS011;3173;48.204;11.612;2022-12-07T13:26:12;6.47;;;4.63;;
6280;SDS011;3173;48.204;11.612;2022-12-07T13:31:39;8.03;;;5.37;;
6280;SDS011;3173;48.204;11.612;2022-12-07T13:34:05;6.20;;;4.10;;
6280;SDS011;3173;48.204;11.612;2022-12-07T13:36:54;6.17;;;4.50;;
6280;SDS011;3173;48.204;11.612;2022-12-07T13:39:22;6.20;;;5.10;;
6280;SDS011;3173;48.204;11.612;2022-12-07T13:41:53;7.60;;;5.27;;
6280;SDS011;3173;48.204;11.612;2022-12-07T13:44:21;10.70;;;4.70;;
6280;SDS011;3173;48.204;11.612;2022-12-07T13:49:31;9.83;;;5.23;;
6280;SDS011;3173;48.204;11.612;2022-12-07T13:54:45;8.40;;;6.00;;
6280;SDS011;3173;48.204;11.612;2022-12-07T13:57:13;8.90;;;5.50;;
6280;SDS011;3173;48.204;11.612;2022-12-07T13:59:39;12.43;;;5.00;;
6280;SDS011;3173;48.204;11.612;2022-12-07T14:02:18;14.90;;;7.40;;
6280;SDS011;3173;48.204;11.612;2022-12-07T14:04:50;9.80;;;6.23;;
6280;SDS011;3173;48.204;11.612;2022-12-07T14:07:20;7.60;;;5.07;;
6280;SDS011;3173;48.204;11.612;2022-12-07T14:09:56;11.30;;;5.93;;
6280;SDS011;3173;48.204;11.612;2022-12-07T14:12:26;9.33;;;6.20;;
6280;SDS011;3173;48.204;11.612;2022-12-07T14:14:54;15.77;;;5.43;;
6280;SDS011;3173;48.204;11.612;2022-12-07T14:17:22;9.77;;;5.53;;
6280;SDS011;3173;48.204;11.612;2022-12-07T14:19:54;8.00;;;5.10;;
6280;SDS011;3173;48.204;11.612;2022-12-07T14:22:22;8.33;;;5.30;;
6280;SDS011;3173;48.204;11.612;2022-12-07T14:25:00;7.87;;;5.60;;
6280;SDS011;3173;48.204;11.612;2022-12-07T14:27:36;9.80;;;6.00;;
6280;SDS011;3173;48.204;11.612;2022-12-07T14:30:03;9.83;;;6.10;;
6280;SDS011;3173;48.204;11.612;2022-12-07T14:32:30;8.90;;;5.83;;
6280;SDS011;3173;48.204;11.612;2022-12-07T14:37:36;13.83;;;6.07;;
6280;SDS011;3173;48.204;11.612;2022-12-07T14:40:03;13.10;;;5.23;;
6280;SDS011;3173;48.204;11.612;2022-12-07T14:42:30;8.80;;;5.50;;
6280;SDS011;3173;48.204;11.612;2022-12-07T14:44:58;7.90;;;5.27;;
6280;SDS011;3173;48.204;11.612;2022-12-07T14:47:24;9.53;;;5.40;;
6280;SDS011;3173;48.204;11.612;2022-12-07T14:49:51;11.57;;;6.73;;
6280;SDS011;3173;48.204;11.612;2022-12-07T14:52:21;13.90;;;6.40;;
6280;SDS011;3173;48.204;11.612;2022-12-07T14:54:51;11.90;;;7.03;;
6280;SDS011;3173;48.204;11.612;2022-12-07T14:57:17;12.70;;;7.30;;
6280;SDS011;3173;48.204;11.612;2022-12-07T14:59:43;15.50;;;7.10;;
6280;SDS011;3173;48.204;11.612;2022-12-07T15:02:09;11.57;;;7.30;;
6280;SDS011;3173;48.204;11.612;2022-12-07T15:04:37;15.13;;;7.07;;
6280;SDS011;3173;48.204;11.612;2022-12-07T15:07:03;9.63;;;6.47;;
6280;SDS011;3173;48.204;11.612;2022-12-07T15:09:30;9.60;;;6.53;;
6280;SDS011;3173;48.204;11.612;2022-12-07T15:11:56;13.07;;;8.07;;
6280;SDS011;3173;48.204;11.612;2022-12-07T15:14:21;10.80;;;6.40;;
6280;SDS011;3173;48.204;11.612;2022-12-07T15:16:47;13.80;;;8.00;;
6280;SDS011;3173;48.204;11.612;2022-12-07T15:19:18;21.63;;;11.27;;
6280;SDS011;3173;48.204;11.612;2022-12-07T15:21:50;20.70;;;12.07;;
6280;SDS011;3173;48.204;11.612;2022-12-07T15:24:17;28.93;;;15.63;;
6280;SDS011;3173;48.204;11.612;2022-12-07T15:26:44;39.97;;;16.47;;
6280;SDS011;3173;48.204;11.612;2022-12-07T15:29:10;30.63;;;13.67;;
6280;SDS011;3173;48.204;11.612;2022-12-07T15:31:36;23.33;;;11.90;;
6280;SDS011;3173;48.204;11.612;2022-12-07T15:34:03;20.77;;;10.97;;
6280;SDS011;3173;48.204;11.612;2022-12-07T15:36:30;17.40;;;10.10;;
6280;SDS011;3173;48.204;11.612;2022-12-07T15:38:57;16.60;;;10.27;;
6280;SDS011;3173;48.204;11.612;2022-12-07T15:41:23;16.40;;;9.00;;
6280;SDS011;3173;48.204;11.612;2022-12-07T15:43:49;13.73;;;8.80;;
6280;SDS011;3173;48.204;11.612;2022-12-07T15:46:35;14.87;;;9.23;;
6280;SDS011;3173;48.204;11.612;2022-12-07T15:49:03;14.83;;;8.57;;
6280;SDS011;3173;48.204;11.612;2022-12-07T15:51:35;14.03;;;8.47;;
6280;SDS011;3173;48.204;11.612;2022-12-07T15:54:00;18.97;;;10.80;;
6280;SDS011;3173;48.204;11.612;2022-12-07T15:56:26;24.43;;;12.50;;
6280;SDS011;3173;48.204;11.612;2022-12-07T15:58:52;27.20;;;13.30;;
6280;SDS011;3173;48.204;11.612;2022-12-07T16:01:18;23.23;;;12.53;;
6280;SDS011;3173;48.204;11.612;2022-12-07T16:03:45;22.13;;;13.20;;
6280;SDS011;3173;48.204;11.612;2022-12-07T16:06:11;22.00;;;13.47;;
6280;SDS011;3173;48.204;11.612;2022-12-07T16:08:43;25.97;;;14.07;;
6280;SDS011;3173;48.204;11.612;2022-12-07T16:11:10;19.30;;;11.93;;
6280;SDS011;3173;48.204;11.612;2022-12-07T16:13:36;21.60;;;12.30;;
6280;SDS011;3173;48.204;11.612;2022-12-07T16:16:02;17.67;;;10.83;;
6280;SDS011;3173;48.204;11.612;2022-12-07T16:18:29;18.00;;;12.27;;
6280;SDS011;3173;48.204;11.612;2022-12-07T16:20:55;22.57;;;12.93;;
6280;SDS011;3173;48.204;11.612;2022-12-07T16:23:20;25.27;;;14.97;;
6280;SDS011;3173;48.204;11.612;2022-12-07T16:25:46;31.47;;;16.30;;
6280;SDS011;3173;48.204;11.612;2022-12-07T16:28:12;26.97;;;15.47;;
6280;SDS011;3173;48.204;11.612;2022-12-07T16:30:38;30.90;;;14.03;;
6280;SDS011;3173;48.204;11.612;2022-12-07T16:33:04;19.97;;;10.83;;
6280;SDS011;3173;48.204;11.612;2022-12-07T16:35:30;21.43;;;9.97;;
6280;SDS011;3173;48.204;11.612;2022-12-07T16:37:55;19.00;;;9.23;;
6280;SDS011;3173;48.204;11.612;2022-12-07T16:40:21;19.67;;;10.30;;
6280;SDS011;3173;48.204;11.612;2022-12-07T16:42:47;19.10;;;9.63;;
6280;SDS011;3173;48.204;11.612;2022-12-07T16:45:13;16.13;;;9.07;;
6280;SDS011;3173;48.204;11.612;2022-12-07T16:47:39;19.10;;;8.77;;
6280;SDS011;3173;48.204;11.612;2022-12-07T16:50:06;14.17;;;8.40;;
6280;SDS011;3173;48.204;11.612;2022-12-07T16:52:32;17.20;;;8.70;;
6280;SDS011;3173;48.204;11.612;2022-12-07T16:54:58;14.50;;;7.77;;
6280;SDS011;3173;48.204;11.612;2022-12-07T16:57:24;13.23;;;8.17;;
6280;SDS011;3173;48.204;11.612;2022-12-07T16:59:51;19.67;;;9.63;;
6280;SDS011;3173;48.204;11.612;2022-12-07T17:02:17;18.40;;;11.00;;
6280;SDS011;3173;48.204;11.612;2022-12-07T17:04:43;17.17;;;10.63;;
6280;SDS011;3173;48.204;11.612;2022-12-07T17:07:09;22.47;;;11.17;;
6280;SDS011;3173;48.204;11.612;2022-12-07T17:09:36;18.03;;;9.77;;
6280;SDS011;3173;48.204;11.612;2022-12-07T17:12:02;16.00;;;9.30;;
6280;SDS011;3173;48.204;11.612;2022-12-07T17:14:28;20.00;;;9.43;;
6280;SDS011;3173;48.204;11.612;2022-12-07T17:17:12;12.97;;;8.37;;